Time;durP1;ratioP1;P1;durP2;ratioP2;P2;SDS_P1;SDS_P2;PMS_P1;PMS_P2;Temp;Humidity;BMP_temperature;BMP_pressure;BME280_temperature;BME280_humidity;BME280_pressure;Samples;Min_cycle;Max_cycle;Signal;HPM_P1;HPM_P2
2021/12/30 00:01:21;;;;;;;;;2.00;2.00;;;;;-147.17;100.00;49363.78;4886693;28;53181;-57
2021/12/30 00:03:47;;;;;;;;;1.00;1.00;;;;;-147.17;100.00;49389.38;4887993;28;53522;-57
2021/12/30 00:06:13;;;;;;;;;3.00;3.00;;;;;-147.17;100.00;49367.72;4887126;28;51482;-57
2021/12/30 00:08:39;;;;;;;;;1.00;1.00;;;;;-147.17;100.00;49350.03;4885515;28;51296;-56
2021/12/30 00:11:05;;;;;;;;;1.00;1.00;;;;;-147.17;100.00;49387.41;4886663;28;51081;-58
2021/12/30 00:13:31;;;;;;;;;2.00;2.00;;;;;-147.17;100.00;49332.31;4885806;28;53372;-56
2021/12/30 00:15:57;;;;;;;;;1.33;1.00;;;;;-147.17;100.00;49330.34;4886767;28;53436;-56
2021/12/30 00:18:23;;;;;;;;;2.00;2.00;;;;;-147.17;100.00;49348.06;4887350;28;51092;-57
2021/12/30 00:20:49;;;;;;;;;1.00;1.00;;;;;-147.17;100.00;49363.78;4887492;28;51183;-56
2021/12/30 00:23:15;;;;;;;;;0.33;0.33;;;;;-147.17;100.00;49355.94;4887044;28;52168;-57
2021/12/30 00:25:42;;;;;;;;;1.00;1.00;;;;;-147.17;100.00;49379.53;4886544;28;51231;-57
2021/12/30 00:28:11;;;;;;;;;2.00;2.00;;;;;-147.17;100.00;49373.63;4887046;28;51168;-56
2021/12/30 00:30:36;;;;;;;;;2.00;2.00;;;;;-147.17;100.00;49348.06;4886128;28;51417;-56
2021/12/30 00:33:02;;;;;;;;;1.00;0.00;;;;;-147.17;100.00;49336.25;4885008;28;51111;-57
2021/12/30 00:35:27;;;;;;;;;1.67;1.67;;;;;-147.17;100.00;49389.38;4886552;28;53181;-57
2021/12/30 00:37:53;;;;;;;;;1.33;1.33;;;;;-147.17;100.00;49355.94;4886868;28;53182;-55
2021/12/30 00:40:20;;;;;;;;;2.00;2.00;;;;;-147.17;100.00;49334.28;4885960;28;51293;-58
2021/12/30 00:42:45;;;;;;;;;1.00;1.00;;;;;-147.17;100.00;49357.91;4886377;28;52021;-56
2021/12/30 00:45:10;;;;;;;;;1.00;1.00;;;;;-147.17;100.00;49336.25;4884758;28;51471;-57
2021/12/30 00:47:36;;;;;;;;;1.00;1.00;;;;;-147.17;100.00;49328.38;4885928;28;51412;-57
2021/12/30 00:50:01;;;;;;;;;1.00;1.00;;;;;-147.17;100.00;49365.75;4894587;28;51361;-57
2021/12/30 00:52:27;;;;;;;;;2.00;1.00;;;;;-147.17;100.00;49344.13;4885237;28;51246;-57
2021/12/30 00:54:53;;;;;;;;;1.33;1.33;;;;;-147.17;100.00;49328.38;4887412;28;51211;-57
2021/12/30 00:57:18;;;;;;;;;1.00;1.00;;;;;-147.17;100.00;49296.88;4885767;28;51355;-57
2021/12/30 00:59:43;;;;;;;;;1.00;1.00;;;;;-147.17;100.00;49298.84;4887165;28;51311;-57
2021/12/30 01:02:09;;;;;;;;;1.67;1.67;;;;;-147.17;100.00;49336.25;4885582;28;54910;-57
2021/12/30 01:04:34;;;;;;;;;1.00;1.00;;;;;-147.17;100.00;49340.19;4886419;28;51275;-56
2021/12/30 01:07:00;;;;;;;;;1.00;1.00;;;;;-147.17;100.00;49340.19;4882712;28;51428;-58
2021/12/30 01:09:25;;;;;;;;;2.00;2.00;;;;;-147.17;100.00;49352.00;4885414;29;51406;-57
2021/12/30 01:11:51;;;;;;;;;1.00;1.00;;;;;-147.17;100.00;49310.66;4885670;28;51833;-57
2021/12/30 01:14:20;;;;;;;;;2.00;2.00;;;;;-147.17;100.00;49312.63;4885296;29;51436;-56
2021/12/30 01:16:53;;;;;;;;;2.33;2.33;;;;;-147.17;100.00;49336.25;4900289;28;51265;-56
2021/12/30 01:19:23;;;;;;;;;0.67;0.67;;;;;-147.17;100.00;49316.56;4885757;28;51448;-55
2021/12/30 01:21:52;;;;;;;;;2.00;2.00;;;;;-147.17;100.00;49328.38;4886262;28;51208;-57
2021/12/30 01:24:17;;;;;;;;;1.00;1.00;;;;;-147.17;100.00;49324.44;4886281;28;51237;-56
2021/12/30 01:26:43;;;;;;;;;1.67;1.67;;;;;-147.17;100.00;49302.78;4886346;28;51774;-57
2021/12/30 01:29:08;;;;;;;;;2.00;2.00;;;;;-147.17;100.00;49289.00;4886771;28;51232;-56
2021/12/30 01:31:33;;;;;;;;;2.00;2.00;;;;;-147.17;100.00;49306.72;4884002;29;51705;-58
2021/12/30 01:33:59;;;;;;;;;1.00;1.00;;;;;-147.17;100.00;49261.47;4885052;28;51123;-57
2021/12/30 01:36:26;;;;;;;;;1.00;1.00;;;;;-147.17;100.00;49271.31;4886084;28;51296;-58
2021/12/30 01:38:53;;;;;;;;;2.00;2.00;;;;;-147.17;100.00;49304.75;4885969;28;51141;-57
2021/12/30 01:41:20;;;;;;;;;3.00;1.00;;;;;-147.17;100.00;49263.44;4884754;28;51195;-56
2021/12/30 01:43:46;;;;;;;;;1.67;1.33;;;;;-147.17;100.00;49245.72;4885395;28;53259;-56
2021/12/30 01:46:11;;;;;;;;;2.00;2.00;;;;;-147.17;100.00;49255.56;4884796;28;51385;-55
2021/12/30 01:48:37;;;;;;;;;1.00;1.00;;;;;-147.17;100.00;49277.19;4886236;28;51306;-56
2021/12/30 01:51:05;;;;;;;;;2.33;1.67;;;;;-147.17;100.00;49261.47;4885546;28;52078;-57
2021/12/30 01:53:31;;;;;;;;;2.00;1.00;;;;;-147.17;100.00;49267.38;4885462;28;51273;-56
2021/12/30 01:55:57;;;;;;;;;2.00;2.00;;;;;-147.17;100.00;49226.03;4885634;28;53070;-55
2021/12/30 01:58:22;;;;;;;;;2.00;2.00;;;;;-147.17;100.00;49292.94;4886664;28;51300;-55
2021/12/30 02:00:50;;;;;;;;;2.67;2.67;;;;;-147.17;100.00;49202.41;4884729;28;51965;-56
2021/12/30 02:03:17;;;;;;;;;2.33;2.33;;;;;-147.17;100.00;49296.88;4885161;28;51123;-56
2021/12/30 02:05:44;;;;;;;;;1.00;1.00;;;;;-147.17;100.00;49263.44;4885200;28;51694;-57
2021/12/30 02:08:14;;;;;;;;;1.00;1.00;;;;;-147.17;100.00;49257.53;4883944;28;51374;-57
2021/12/30 02:10:40;;;;;;;;;2.00;2.00;;;;;-147.17;100.00;49241.78;4884043;28;52503;-56
2021/12/30 02:13:07;;;;;;;;;2.00;2.00;;;;;-147.17;100.00;49222.09;4885710;28;51300;-57
2021/12/30 02:15:33;;;;;;;;;2.00;1.33;;;;;-147.17;100.00;49249.66;4885131;29;51315;-56
2021/12/30 02:17:59;;;;;;;;;2.67;2.67;;;;;-147.17;100.00;49208.31;4885426;28;53062;-57
2021/12/30 02:20:52;;;;;;;;;2.67;2.67;;;;;-147.17;100.00;49251.63;4885088;28;52764;-57
2021/12/30 02:23:22;;;;;;;;;1.00;1.00;;;;;-147.17;100.00;49257.53;4883388;29;51334;-57
2021/12/30 02:25:49;;;;;;;;;1.00;1.00;;;;;-147.17;100.00;49255.56;4885030;28;51475;-56
2021/12/30 02:28:16;;;;;;;;;1.00;1.00;;;;;-147.17;100.00;49263.44;4885483;28;53364;-56
2021/12/30 02:30:43;;;;;;;;;0.00;0.00;;;;;-147.17;100.00;49202.41;4883265;28;51502;-58
2021/12/30 02:33:09;;;;;;;;;1.00;1.00;;;;;-147.17;100.00;49226.03;4885070;28;51257;-58
2021/12/30 02:35:35;;;;;;;;;0.00;0.00;;;;;-147.17;100.00;49226.03;4884785;28;51223;-58
2021/12/30 02:38:00;;;;;;;;;1.00;0.00;;;;;-147.17;100.00;49237.84;4884953;28;51556;-58
2021/12/30 02:40:28;;;;;;;;;0.00;0.00;;;;;-147.17;100.00;49245.72;4885061;28;51183;-57
2021/12/30 02:42:54;;;;;;;;;0.67;0.67;;;;;-147.17;100.00;49265.41;4884551;28;51242;-57
2021/12/30 02:45:20;;;;;;;;;1.00;1.00;;;;;-147.17;100.00;49220.13;4884726;28;51462;-57
2021/12/30 02:47:45;;;;;;;;;0.00;0.00;;;;;-147.17;100.00;49269.34;4885074;28;51128;-58
2021/12/30 02:50:10;;;;;;;;;0.00;0.00;;;;;-147.17;100.00;49277.19;4884967;28;53370;-57
2021/12/30 02:52:36;;;;;;;;;0.67;0.00;;;;;-147.17;100.00;49206.34;4884991;28;53285;-57
2021/12/30 02:55:01;;;;;;;;;2.00;0.00;;;;;-147.17;100.00;49249.66;4884712;28;51421;-57
2021/12/30 02:57:27;;;;;;;;;1.00;0.00;;;;;-147.17;100.00;49255.56;4892001;28;53340;-56
2021/12/30 02:59:52;;;;;;;;;0.00;0.00;;;;;-147.17;100.00;49257.53;4883969;28;51537;-56
2021/12/30 03:02:18;;;;;;;;;0.00;0.00;;;;;-147.17;100.00;49237.84;4885719;28;51350;-57
2021/12/30 03:04:43;;;;;;;;;0.00;0.00;;;;;-147.17;100.00;49245.72;4884899;28;51239;-58
2021/12/30 03:07:09;;;;;;;;;0.00;0.00;;;;;-147.17;100.00;49204.38;4881145;29;51335;-57
2021/12/30 03:09:34;;;;;;;;;1.00;1.00;;;;;-147.17;100.00;49261.47;4884276;28;53130;-57
2021/12/30 03:12:00;;;;;;;;;0.00;0.00;;;;;-147.17;100.00;49229.97;4884680;29;51435;-57
2021/12/30 03:14:26;;;;;;;;;0.00;0.00;;;;;-147.17;100.00;49304.75;4884085;29;51268;-57
2021/12/30 03:16:52;;;;;;;;;0.00;0.00;;;;;-147.17;100.00;49281.13;4884975;28;51513;-57
2021/12/30 03:19:17;;;;;;;;;1.00;0.00;;;;;-147.17;100.00;49231.94;4884463;28;52316;-57
2021/12/30 03:21:43;;;;;;;;;1.00;1.00;;;;;-147.17;100.00;49245.72;4888546;28;51191;-58
2021/12/30 03:24:08;;;;;;;;;0.67;0.00;;;;;-147.17;100.00;49287.03;4886456;28;51220;-57
2021/12/30 03:26:35;;;;;;;;;1.00;1.00;;;;;-147.17;100.00;49298.84;4887552;28;51129;-57
2021/12/30 03:29:00;;;;;;;;;0.00;0.00;;;;;-147.17;100.00;49271.31;4886768;28;52797;-57
2021/12/30 03:31:26;;;;;;;;;0.00;0.00;;;;;-147.17;100.00;49289.00;4886850;28;51429;-56
2021/12/30 03:33:51;;;;;;;;;0.00;0.00;;;;;-147.17;100.00;49247.69;4887706;28;51454;-57
2021/12/30 03:36:18;;;;;;;;;0.00;0.00;;;;;-147.17;100.00;49292.94;4886844;28;51370;-57
2021/12/30 03:38:53;;;;;;;;;0.00;0.00;;;;;-147.17;100.00;49249.66;4887723;28;51650;-57
2021/12/30 03:41:21;;;;;;;;;0.00;0.00;;;;;-147.17;100.00;49281.13;4887457;28;51189;-57
2021/12/30 03:43:47;;;;;;;;;0.00;0.00;;;;;-147.17;100.00;49316.56;4886934;28;51160;-57
2021/12/30 03:46:12;;;;;;;;;0.00;0.00;;;;;-147.17;100.00;49292.94;4884235;28;51189;-59
2021/12/30 03:48:42;;;;;;;;;0.33;0.33;;;;;-147.17;100.00;49269.34;4886118;28;51393;-56
2021/12/30 03:51:14;;;;;;;;;0.00;0.00;;;;;-147.17;100.00;49308.69;4885837;28;51252;-57
2021/12/30 03:53:42;;;;;;;;;0.33;0.00;;;;;-147.17;100.00;49294.91;4885701;28;53444;-57
2021/12/30 03:56:13;;;;;;;;;0.00;0.00;;;;;-147.17;100.00;49296.88;4900117;28;51425;-57
2021/12/30 03:58:41;;;;;;;;;0.67;0.00;;;;;-147.17;100.00;49314.59;4886380;28;51196;-56
2021/12/30 04:01:08;;;;;;;;;0.00;0.00;;;;;-147.17;100.00;49320.50;4884857;28;51287;-56
2021/12/30 04:03:33;;;;;;;;;0.00;0.00;;;;;-147.17;100.00;49298.84;4885666;29;54391;-56
2021/12/30 04:05:59;;;;;;;;;0.00;0.00;;;;;-147.17;100.00;49283.09;4885928;28;53412;-57
2021/12/30 04:08:24;;;;;;;;;0.00;0.00;;;;;-147.17;100.00;49271.31;4885430;28;51611;-57
2021/12/30 04:10:50;;;;;;;;;0.00;0.00;;;;;-147.17;100.00;49285.06;4885348;28;53467;-58
2021/12/30 04:13:15;;;;;;;;;0.33;0.00;;;;;-147.17;100.00;49289.00;4885376;28;51292;-57
2021/12/30 04:15:41;;;;;;;;;1.00;1.00;;;;;-147.17;100.00;49326.41;4884236;28;52950;-57
2021/12/30 04:18:06;;;;;;;;;4.00;1.00;;;;;-147.17;100.00;49289.00;4885166;28;51832;-58
2021/12/30 04:20:31;;;;;;;;;1.00;0.00;;;;;-147.17;100.00;49318.53;4885948;28;51317;-57
2021/12/30 04:22:57;;;;;;;;;1.00;1.00;;;;;-147.17;100.00;49300.81;4886198;28;51372;-57
2021/12/30 04:25:22;;;;;;;;;1.00;0.00;;;;;-147.17;100.00;49320.50;4882922;28;51257;-57
2021/12/30 04:27:47;;;;;;;;;0.33;0.33;;;;;-147.17;100.00;49247.69;4886143;28;51760;-57
2021/12/30 04:30:15;;;;;;;;;0.00;0.00;;;;;-147.17;100.00;49289.00;4884325;29;51208;-57
2021/12/30 04:32:40;;;;;;;;;1.00;1.00;;;;;-147.17;100.00;49298.84;4884643;28;51153;-57
2021/12/30 04:35:07;;;;;;;;;0.00;0.00;;;;;-147.17;100.00;49289.00;4884721;28;51280;-57
2021/12/30 04:37:33;;;;;;;;;0.00;0.00;;;;;-147.17;100.00;49269.34;4884717;28;51960;-57
2021/12/30 04:39:59;;;;;;;;;0.00;0.00;;;;;-147.17;100.00;49281.13;4885151;28;51337;-58
2021/12/30 04:42:25;;;;;;;;;0.00;0.00;;;;;-147.17;100.00;49328.38;4885431;28;51333;-57
2021/12/30 04:44:50;;;;;;;;;0.67;0.67;;;;;-147.17;100.00;49296.88;4899691;28;51365;-57
2021/12/30 04:47:16;;;;;;;;;0.67;0.00;;;;;-147.17;100.00;49257.53;4899109;28;51866;-57
2021/12/30 04:49:42;;;;;;;;;0.33;0.33;;;;;-147.17;100.00;49290.97;4885045;28;51404;-57
2021/12/30 04:52:08;;;;;;;;;0.00;0.00;;;;;-147.17;100.00;49312.63;4885547;28;53066;-58
2021/12/30 04:54:33;;;;;;;;;0.00;0.00;;;;;-147.17;100.00;49308.69;4885227;28;51339;-57
2021/12/30 04:56:59;;;;;;;;;0.00;0.00;;;;;-147.17;100.00;49336.25;4884416;28;51302;-58
2021/12/30 04:59:24;;;;;;;;;0.00;0.00;;;;;-147.17;100.00;49328.38;4885175;28;51079;-56
2021/12/30 05:01:50;;;;;;;;;0.00;0.00;;;;;-147.17;100.00;49294.91;4884529;28;51666;-56
2021/12/30 05:04:15;;;;;;;;;0.00;0.00;;;;;-147.17;100.00;49304.75;4884724;28;52057;-56
2021/12/30 05:06:40;;;;;;;;;0.00;0.00;;;;;-147.17;100.00;49371.66;4881968;29;51944;-56
2021/12/30 05:09:08;;;;;;;;;1.00;1.00;;;;;-147.17;100.00;49324.44;4883036;28;53025;-57
2021/12/30 05:11:42;;;;;;;;;1.00;0.00;;;;;-147.17;100.00;49296.88;4884902;28;53315;-56
2021/12/30 05:14:11;;;;;;;;;1.00;0.00;;;;;-147.17;100.00;49324.44;4884071;29;52847;-56
2021/12/30 05:16:38;;;;;;;;;0.00;0.00;;;;;-147.17;100.00;49344.13;4883493;28;51158;-57
2021/12/30 05:19:04;;;;;;;;;0.00;0.00;;;;;-147.17;100.00;49275.22;4884836;29;51251;-56
2021/12/30 05:21:30;;;;;;;;;3.00;1.00;;;;;-147.17;100.00;49273.25;4884981;28;51429;-57
2021/12/30 05:23:55;;;;;;;;;0.33;0.33;;;;;-147.17;100.00;49296.88;4884940;28;51185;-57
2021/12/30 05:26:25;;;;;;;;;0.00;0.00;;;;;-147.17;100.00;49289.00;4884643;28;51733;-57
2021/12/30 05:28:50;;;;;;;;;0.00;0.00;;;;;-147.17;100.00;49267.38;4883174;28;51497;-57
2021/12/30 05:31:16;;;;;;;;;0.00;0.00;;;;;-147.17;100.00;49310.66;4884577;28;51568;-57
2021/12/30 05:33:41;;;;;;;;;1.00;1.00;;;;;-147.17;100.00;49292.94;4884280;29;51342;-56
2021/12/30 05:36:07;;;;;;;;;0.67;0.67;;;;;-147.17;100.00;49330.34;4883989;28;51796;-57
2021/12/30 05:38:32;;;;;;;;;0.00;0.00;;;;;-147.17;100.00;49289.00;4883535;28;51123;-57
2021/12/30 05:40:58;;;;;;;;;2.00;1.00;;;;;-147.17;100.00;49363.78;4885022;28;51155;-56
2021/12/30 05:43:23;;;;;;;;;1.00;1.00;;;;;-147.17;100.00;49320.50;4884396;29;53034;-56
2021/12/30 05:45:48;;;;;;;;;2.00;2.00;;;;;-147.17;100.00;49308.69;4883273;28;51990;-56
2021/12/30 05:48:14;;;;;;;;;0.33;0.33;;;;;-147.17;100.00;49320.50;4883799;28;51199;-57
2021/12/30 05:50:39;;;;;;;;;2.00;1.00;;;;;-147.17;100.00;49316.56;4885362;28;51275;-57
2021/12/30 05:53:04;;;;;;;;;0.33;0.33;;;;;-147.17;100.00;49302.78;4883857;28;51282;-57
2021/12/30 05:55:30;;;;;;;;;2.00;2.00;;;;;-147.17;100.00;49316.56;4883330;28;54060;-57
2021/12/30 05:57:57;;;;;;;;;0.00;0.00;;;;;-147.17;100.00;49312.63;4883882;28;51689;-57
2021/12/30 06:00:25;;;;;;;;;1.67;1.00;;;;;-147.17;100.00;49312.63;4884387;28;51242;-57
2021/12/30 06:02:51;;;;;;;;;1.00;1.00;;;;;-147.17;100.00;49326.41;4883425;28;51794;-57
2021/12/30 06:05:16;;;;;;;;;2.00;2.00;;;;;-147.17;100.00;49336.25;4883801;28;53396;-57
2021/12/30 06:07:43;;;;;;;;;2.00;1.33;;;;;-147.17;100.00;49314.59;4898095;28;51324;-57
2021/12/30 06:10:10;;;;;;;;;1.33;1.33;;;;;-147.17;100.00;49292.94;4884253;28;53381;-57
2021/12/30 06:12:36;;;;;;;;;1.00;1.00;;;;;-147.17;100.00;49310.66;4883109;29;51348;-57
2021/12/30 06:15:02;;;;;;;;;2.00;2.00;;;;;-147.17;100.00;49294.91;4884062;28;51827;-57
2021/12/30 06:17:27;;;;;;;;;2.00;1.00;;;;;-147.17;100.00;49330.34;4883743;28;51174;-57
2021/12/30 06:19:52;;;;;;;;;1.33;1.00;;;;;-147.17;100.00;49352.00;4882655;28;51437;-57
2021/12/30 06:22:18;;;;;;;;;2.33;1.00;;;;;-147.17;100.00;49328.38;4883124;28;52902;-57
2021/12/30 06:24:43;;;;;;;;;1.33;1.00;;;;;-147.17;100.00;49342.16;4884541;28;51861;-57
2021/12/30 06:27:10;;;;;;;;;1.67;1.00;;;;;-147.17;100.00;49332.31;4882659;28;51349;-57
2021/12/30 06:29:37;;;;;;;;;2.00;2.00;;;;;-147.17;100.00;49326.41;4883448;28;53495;-57
2021/12/30 06:32:04;;;;;;;;;1.67;1.33;;;;;-147.17;100.00;49316.56;4883787;28;51404;-57
2021/12/30 06:34:30;;;;;;;;;2.00;2.00;;;;;-147.17;100.00;49334.28;4897785;28;51124;-56
2021/12/30 06:36:55;;;;;;;;;1.00;1.00;;;;;-147.17;100.00;49332.31;4883271;28;51183;-57
2021/12/30 06:39:20;;;;;;;;;1.00;1.00;;;;;-147.17;100.00;49336.25;4884121;28;53085;-57
2021/12/30 06:41:46;;;;;;;;;1.67;1.67;;;;;-147.17;100.00;49332.31;4883839;28;53871;-57
2021/12/30 06:44:11;;;;;;;;;2.33;1.33;;;;;-147.17;100.00;49332.31;4882930;28;51991;-57
2021/12/30 06:46:37;;;;;;;;;3.00;2.67;;;;;-147.17;100.00;49304.75;4881731;28;51592;-56
2021/12/30 06:49:07;;;;;;;;;2.00;2.00;;;;;-147.17;100.00;49308.69;4882399;29;51334;-56
2021/12/30 06:51:35;;;;;;;;;1.00;1.00;;;;;-147.17;100.00;49336.25;4881805;28;53362;-57
2021/12/30 06:54:02;;;;;;;;;2.33;2.33;;;;;-147.17;100.00;49324.44;4880595;29;54240;-57
2021/12/30 06:56:27;;;;;;;;;2.00;2.00;;;;;-147.17;100.00;49320.50;4900297;28;52578;-57
2021/12/30 06:58:53;;;;;;;;;3.33;2.67;;;;;-147.17;100.00;49340.19;4885851;28;51519;-57
2021/12/30 07:01:18;;;;;;;;;2.00;2.00;;;;;-147.17;100.00;49332.31;4887176;28;53262;-57
2021/12/30 07:03:43;;;;;;;;;2.33;1.67;;;;;-147.17;100.00;49316.56;4884934;28;51770;-57
2021/12/30 07:06:09;;;;;;;;;4.00;3.00;;;;;-147.17;100.00;49350.03;4886287;28;51184;-57
2021/12/30 07:08:34;;;;;;;;;6.00;4.00;;;;;-147.17;100.00;49352.00;4881072;28;52194;-57
2021/12/30 07:11:00;;;;;;;;;3.67;3.67;;;;;-147.17;100.00;49330.34;4887036;28;51204;-57
2021/12/30 07:13:25;;;;;;;;;4.33;2.33;;;;;-147.17;100.00;49342.16;4886154;28;51888;-57
2021/12/30 07:15:50;;;;;;;;;6.67;3.67;;;;;-147.17;100.00;49373.63;4886356;28;51250;-56
2021/12/30 07:18:17;;;;;;;;;2.00;2.00;;;;;-147.17;100.00;49340.19;4885175;28;51135;-57
2021/12/30 07:20:43;;;;;;;;;5.67;3.33;;;;;-147.17;100.00;49357.91;4887336;28;51131;-56
2021/12/30 07:23:08;;;;;;;;;3.00;3.00;;;;;-147.17;100.00;49375.59;4886136;28;51355;-58
2021/12/30 07:25:34;;;;;;;;;3.00;3.00;;;;;-147.17;100.00;49359.84;4885643;28;51156;-57
2021/12/30 07:28:01;;;;;;;;;5.33;4.33;;;;;-147.17;100.00;49332.31;4886161;28;51155;-56
2021/12/30 07:30:27;;;;;;;;;5.00;5.00;;;;;-147.17;100.00;49377.56;4884860;28;52225;-57
2021/12/30 07:32:53;;;;;;;;;6.33;5.67;;;;;-147.17;100.00;49383.47;4885456;28;52508;-57
2021/12/30 07:35:20;;;;;;;;;6.67;5.33;;;;;-147.17;100.00;49379.53;4885481;28;51312;-56
2021/12/30 07:37:47;;;;;;;;;3.00;2.00;;;;;-147.17;100.00;49348.06;4885772;28;51481;-56
2021/12/30 07:40:12;;;;;;;;;4.67;4.00;;;;;-147.17;100.00;49359.84;4886465;28;53448;-56
2021/12/30 07:42:38;;;;;;;;;4.67;3.00;;;;;-147.17;100.00;49383.47;4899866;28;51470;-55
2021/12/30 07:45:05;;;;;;;;;3.00;3.00;;;;;-147.17;100.00;49352.00;4881672;28;51160;-56
2021/12/30 07:50:06;;;;;;;;;5.67;4.67;;;;;-147.17;100.00;49418.91;4984141;23;51292;-55
2021/12/30 07:52:31;;;;;;;;;8.00;7.33;;;;;-147.17;100.00;49379.53;4888364;28;51742;-57
2021/12/30 07:57:32;;;;;;;;;4.67;4.00;;;;;-147.17;100.00;49361.81;4923883;23;52717;-56
2021/12/30 07:59:57;;;;;;;;;3.00;3.00;;;;;-147.17;100.00;49391.34;4884740;28;51353;-56
2021/12/30 08:02:23;;;;;;;;;6.33;3.00;;;;;-147.17;100.00;49407.09;4887773;28;51743;-56
2021/12/30 08:04:48;;;;;;;;;4.33;4.33;;;;;-147.17;100.00;49414.97;4887965;28;53188;-57
2021/12/30 08:07:19;;;;;;;;;5.33;4.00;;;;;-147.17;100.00;49414.97;4886267;28;51502;-56
2021/12/30 08:09:44;;;;;;;;;5.67;5.67;;;;;-147.17;100.00;49381.50;4886179;28;51330;-57
2021/12/30 08:12:10;;;;;;;;;4.00;4.00;;;;;-147.17;100.00;49401.19;4886903;28;51726;-57
2021/12/30 08:14:35;;;;;;;;;5.67;4.00;;;;;-147.17;100.00;49414.97;4887630;28;51402;-57
2021/12/30 08:17:01;;;;;;;;;7.00;6.00;;;;;-147.17;100.00;49418.91;4886388;28;51126;-56
2021/12/30 08:19:26;;;;;;;;;4.00;3.00;;;;;-147.17;100.00;49395.28;4888415;28;51195;-57
2021/12/30 08:21:51;;;;;;;;;5.33;4.33;;;;;-147.17;100.00;49405.13;4886136;28;53355;-56
2021/12/30 08:24:17;;;;;;;;;5.00;3.67;;;;;-147.17;100.00;49438.59;4884597;28;51336;-57
2021/12/30 08:26:42;;;;;;;;;7.33;3.33;;;;;-147.17;100.00;49434.66;4880466;28;51200;-57
2021/12/30 08:29:07;;;;;;;;;4.33;4.33;;;;;-147.17;100.00;49409.06;4886229;28;51236;-56
2021/12/30 08:31:34;;;;;;;;;6.00;6.00;;;;;-147.17;100.00;49418.91;4882907;28;51503;-55
2021/12/30 08:34:00;;;;;;;;;5.67;5.00;;;;;-147.17;100.00;49369.69;4879792;28;51357;-57
2021/12/30 08:36:25;;;;;;;;;5.00;5.00;;;;;-147.17;100.00;49450.41;4880616;28;51285;-57
2021/12/30 08:38:51;;;;;;;;;8.00;8.00;;;;;-147.17;100.00;49420.88;4881378;28;51215;-56
2021/12/30 08:41:16;;;;;;;;;8.33;7.67;;;;;-147.17;100.00;49413.00;4876008;28;51945;-57
2021/12/30 08:43:41;;;;;;;;;7.33;6.00;;;;;-147.17;100.00;49365.75;4882576;28;51354;-57
2021/12/30 08:46:07;;;;;;;;;9.00;6.67;;;;;-147.17;100.00;49436.63;4880057;28;51603;-57
2021/12/30 08:48:32;;;;;;;;;6.00;5.67;;;;;-147.17;100.00;49428.75;4879424;28;51309;-57
2021/12/30 08:50:57;;;;;;;;;6.33;5.67;;;;;-147.17;100.00;49448.44;4883238;28;51829;-57
2021/12/30 08:53:25;;;;;;;;;6.00;5.00;;;;;-147.17;100.00;49446.47;4880549;28;51318;-57
2021/12/30 08:55:52;;;;;;;;;7.00;5.00;;;;;-147.17;100.00;49395.28;4882686;29;51143;-57
2021/12/30 08:58:17;;;;;;;;;12.67;11.33;;;;;-147.17;100.00;49369.69;4884981;28;51376;-58
2021/12/30 09:00:46;;;;;;;;;5.00;5.00;;;;;-147.17;100.00;49375.59;4883159;28;51306;-56
2021/12/30 09:03:12;;;;;;;;;6.00;6.00;;;;;-147.17;100.00;49399.22;4885607;28;51455;-56
2021/12/30 09:05:37;;;;;;;;;6.00;5.00;;;;;-147.17;100.00;49434.66;4882986;28;53134;-57
2021/12/30 09:08:03;;;;;;;;;5.67;4.00;;;;;-147.17;100.00;49414.97;4881420;28;53921;-57
2021/12/30 09:10:34;;;;;;;;;7.67;5.00;;;;;-147.17;100.00;49383.47;4883750;28;53249;-56
2021/12/30 09:12:59;;;;;;;;;5.00;3.67;;;;;-147.17;100.00;49414.97;4880906;28;51369;-56
2021/12/30 09:15:25;;;;;;;;;4.67;4.00;;;;;-147.17;100.00;49428.75;4882535;28;51629;-60
2021/12/30 09:17:51;;;;;;;;;5.00;5.00;;;;;-147.17;100.00;49418.91;4882588;28;53515;-56
2021/12/30 09:20:18;;;;;;;;;4.33;4.33;;;;;-147.17;100.00;49426.78;4880546;28;51600;-56
2021/12/30 09:22:44;;;;;;;;;5.00;5.00;;;;;-147.17;100.00;49409.06;4883175;28;51179;-57
2021/12/30 09:25:11;;;;;;;;;7.00;6.33;;;;;-147.17;100.00;49395.28;4883048;28;51207;-56
2021/12/30 09:27:38;;;;;;;;;4.33;4.00;;;;;-147.17;100.00;49379.53;4883462;28;51187;-56
2021/12/30 09:30:11;;;;;;;;;5.00;3.00;;;;;-147.17;100.00;49375.59;4879437;28;52613;-57
2021/12/30 09:32:37;;;;;;;;;5.00;4.00;;;;;-147.17;100.00;49387.41;4882547;28;51205;-56
2021/12/30 09:35:03;;;;;;;;;5.00;3.00;;;;;-147.17;100.00;49389.38;4871512;28;51203;-53
2021/12/30 09:37:28;;;;;;;;;4.00;4.00;;;;;-147.17;100.00;49420.88;4854870;28;51175;-56
2021/12/30 09:39:55;;;;;;;;;4.00;4.00;;;;;-147.17;100.00;49367.72;4883021;28;51179;-56
2021/12/30 09:42:21;;;;;;;;;6.67;6.00;;;;;-147.17;100.00;49365.75;4881985;28;51412;-56
2021/12/30 09:44:46;;;;;;;;;5.33;5.33;;;;;-147.17;100.00;49334.28;4876803;28;51196;-56
2021/12/30 09:47:19;;;;;;;;;3.33;3.33;;;;;-147.17;100.00;49395.28;4877214;28;51901;-56
2021/12/30 09:49:45;;;;;;;;;6.33;5.67;;;;;-147.17;100.00;49346.09;4879066;28;52052;-55
2021/12/30 09:52:11;;;;;;;;;7.33;6.67;;;;;-147.17;100.00;49344.13;4875078;28;52568;-56
2021/12/30 09:54:36;;;;;;;;;3.00;3.00;;;;;-147.17;100.00;49367.72;4874501;28;51931;-57
2021/12/30 09:57:02;;;;;;;;;7.00;5.00;;;;;-147.17;100.00;49340.19;4875742;28;51202;-55
2021/12/30 09:59:29;;;;;;;;;4.00;4.00;;;;;-147.17;100.00;49363.78;4877164;28;51372;-56
2021/12/30 10:01:55;;;;;;;;;10.67;9.67;;;;;-147.17;100.00;49342.16;4879010;28;51239;-56
2021/12/30 10:04:32;;;;;;;;;7.00;5.00;;;;;-147.17;100.00;49365.75;4884953;28;51716;-56
2021/12/30 10:07:00;;;;;;;;;9.00;6.33;;;;;-147.17;100.00;49371.66;5146116;23;51160;-56
2021/12/30 10:09:50;;;;;;;;;5.67;5.00;;;;;-147.17;100.00;49371.66;4881524;28;51135;-57
2021/12/30 10:12:31;;;;;;;;;9.00;6.33;;;;;-147.17;100.00;49367.72;4878408;28;51531;-57
2021/12/30 10:14:57;;;;;;;;;6.00;4.00;;;;;-147.17;100.00;49401.19;4876893;28;51344;-56
2021/12/30 10:17:25;;;;;;;;;3.33;3.00;;;;;-147.17;100.00;49395.28;4875803;28;51353;-57
2021/12/30 10:19:53;;;;;;;;;6.33;5.00;;;;;-147.17;100.00;49352.00;4874541;28;52003;-57
2021/12/30 10:22:24;;;;;;;;;6.00;5.00;;;;;-147.17;100.00;49344.13;4877012;28;51421;-57
2021/12/30 10:24:51;;;;;;;;;5.00;5.00;;;;;-147.17;100.00;49328.38;4877692;28;51258;-57
2021/12/30 10:27:23;;;;;;;;;5.33;4.67;;;;;-147.17;100.00;49294.91;4875089;28;52094;-56
2021/12/30 10:29:49;;;;;;;;;4.00;4.00;;;;;-147.17;100.00;49289.00;4876559;28;53395;-57
2021/12/30 10:32:16;;;;;;;;;6.00;5.00;;;;;-147.17;100.00;49308.69;4873654;28;51288;-55
2021/12/30 10:35:11;;;;;;;;;3.33;3.33;;;;;-147.17;100.00;49361.81;4871753;28;52868;-55
2021/12/30 10:37:41;;;;;;;;;6.33;5.33;;;;;-147.17;100.00;49290.97;4876415;28;51381;-56
2021/12/30 10:40:27;;;;;;;;;6.33;5.00;;;;;-147.17;100.00;49306.72;4869689;28;52326;-56
2021/12/30 10:43:12;;;;;;;;;3.00;3.00;;;;;-147.17;100.00;49342.16;4875356;28;53412;-56
2021/12/30 10:45:38;;;;;;;;;5.00;2.33;;;;;-147.17;100.00;49308.69;4879734;28;51222;-57
2021/12/30 10:48:07;;;;;;;;;6.00;4.00;;;;;-147.17;100.00;49312.63;4876479;28;51287;-56
2021/12/30 10:50:32;;;;;;;;;5.00;4.33;;;;;-147.17;100.00;49290.97;4875224;28;53364;-56
2021/12/30 10:52:57;;;;;;;;;5.00;4.67;;;;;-147.17;100.00;49251.63;4860854;29;51469;-56
2021/12/30 10:55:24;;;;;;;;;4.00;3.67;;;;;-147.17;100.00;49247.69;4875064;28;51175;-56
2021/12/30 10:57:51;;;;;;;;;5.00;5.00;;;;;-147.17;100.00;49279.16;4874151;28;51420;-57
2021/12/30 11:00:25;;;;;;;;;5.67;4.00;;;;;-147.17;100.00;49237.84;4877416;28;53645;-57
2021/12/30 11:02:50;;;;;;;;;5.00;4.00;;;;;-147.17;100.00;49316.56;4876423;28;52999;-57
2021/12/30 11:05:18;;;;;;;;;3.00;3.00;;;;;-147.17;100.00;49265.41;4877895;28;51266;-57
2021/12/30 11:07:48;;;;;;;;;5.67;5.67;;;;;-147.17;100.00;49241.78;4882804;28;51394;-56
2021/12/30 11:10:17;;;;;;;;;7.00;5.33;;;;;-147.17;100.00;49237.84;4877301;28;51801;-57
2021/12/30 11:12:46;;;;;;;;;4.00;4.00;;;;;-147.17;100.00;49226.03;4874859;28;53579;-57